Time;durP1;ratioP1;P1;durP2;ratioP2;P2;SDS_P1;SDS_P2;PMS_P1;PMS_P2;Temp;Humidity;BMP_temperature;BMP_pressure;BME280_temperature;BME280_humidity;BME280_pressure;Samples;Min_cycle;Max_cycle;Signal;HPM_P1;HPM_P2
2023/09/09 00:00:43;;;;;;;18.30;13.10;;;17.00;99.90;;;;;;5029142;28;20413;-62
2023/09/09 00:03:10;;;;;;;18.98;14.02;;;17.00;99.90;;;;;;5029308;28;20091;-62
2023/09/09 00:05:37;;;;;;;16.83;13.90;;;17.00;99.90;;;;;;5000026;28;20045;-62
2023/09/09 00:08:04;;;;;;;18.35;13.10;;;17.10;99.90;;;;;;5026233;28;20130;-62
2023/09/09 00:10:37;;;;;;;18.25;13.85;;;17.20;99.90;;;;;;5023931;28;20053;-62
2023/09/09 00:13:06;;;;;;;20.25;13.82;;;17.20;99.90;;;;;;5022821;28;20486;-62
2023/09/09 00:15:33;;;;;;;20.17;14.35;;;17.30;99.90;;;;;;5015805;28;20406;-62
2023/09/09 00:18:02;;;;;;;18.88;13.70;;;17.20;99.90;;;;;;5027006;28;20034;-63
2023/09/09 00:20:33;;;;;;;21.02;14.50;;;17.20;99.90;;;;;;5016866;28;21047;-62
2023/09/09 00:23:08;;;;;;;16.55;14.10;;;17.10;99.90;;;;;;5022277;28;20466;-61
2023/09/09 00:25:36;;;;;;;19.27;14.40;;;17.00;99.90;;;;;;5023096;28;20506;-62
2023/09/09 00:28:03;;;;;;;20.45;15.20;;;17.00;99.90;;;;;;5023173;28;20053;-62
2023/09/09 00:30:30;;;;;;;18.38;14.55;;;17.00;99.90;;;;;;5024628;28;20431;-62
2023/09/09 00:32:59;;;;;;;23.70;14.18;;;16.90;99.90;;;;;;5019634;28;20140;-62
2023/09/09 00:35:26;;;;;;;19.52;13.70;;;16.80;99.90;;;;;;5002374;28;20048;-62
2023/09/09 00:37:54;;;;;;;18.45;13.90;;;16.80;99.90;;;;;;5026508;28;20076;-62
2023/09/09 00:40:21;;;;;;;18.88;13.77;;;16.80;99.90;;;;;;5005961;28;20055;-62
2023/09/09 00:42:48;;;;;;;17.48;13.15;;;16.70;99.90;;;;;;5005008;28;20057;-62
2023/09/09 00:45:15;;;;;;;18.77;13.35;;;16.70;99.90;;;;;;5012598;28;20429;-62
2023/09/09 00:47:42;;;;;;;15.10;11.90;;;16.70;99.90;;;;;;5015718;28;20144;-62
2023/09/09 00:50:11;;;;;;;17.67;12.95;;;16.70;99.90;;;;;;5018377;28;20041;-62
2023/09/09 00:52:39;;;;;;;16.40;13.15;;;16.70;99.90;;;;;;5027125;28;20124;-62
2023/09/09 00:55:07;;;;;;;15.88;12.85;;;16.70;99.90;;;;;;5024304;28;20097;-62
2023/09/09 00:57:34;;;;;;;17.38;13.57;;;16.70;99.90;;;;;;4995041;28;20052;-62
2023/09/09 01:00:09;;;;;;;17.23;12.77;;;16.70;99.90;;;;;;5027050;28;20060;-62
2023/09/09 01:02:40;;;;;;;16.83;12.70;;;16.70;99.90;;;;;;5018527;28;20132;-61
2023/09/09 01:05:09;;;;;;;15.75;12.52;;;16.70;99.90;;;;;;5019332;28;20056;-60
2023/09/09 01:07:46;;;;;;;18.98;13.35;;;16.70;99.90;;;;;;5022596;28;20499;-62
2023/09/09 01:10:14;;;;;;;18.60;13.82;;;16.70;99.90;;;;;;5012920;28;20137;-62
2023/09/09 01:12:42;;;;;;;16.48;13.13;;;16.70;99.90;;;;;;5029473;28;20561;-62
2023/09/09 01:15:10;;;;;;;14.45;12.10;;;16.70;99.90;;;;;;5022050;28;20040;-62
2023/09/09 01:17:38;;;;;;;15.40;12.52;;;16.60;99.90;;;;;;5026843;28;20034;-62
2023/09/09 01:20:14;;;;;;;16.13;12.02;;;16.60;99.90;;;;;;5005545;28;20045;-62
2023/09/09 01:22:44;;;;;;;17.15;11.98;;;16.60;99.90;;;;;;5008249;28;20107;-62
2023/09/09 01:25:12;;;;;;;14.23;11.88;;;16.50;99.90;;;;;;5025526;28;20104;-62
2023/09/09 01:27:39;;;;;;;16.38;12.05;;;16.50;99.90;;;;;;5027580;28;20049;-62
2023/09/09 01:30:08;;;;;;;17.95;14.10;;;16.40;99.90;;;;;;5007645;28;20490;-62
2023/09/09 01:32:35;;;;;;;16.73;13.02;;;16.50;99.90;;;;;;5018115;28;20038;-62
2023/09/09 01:35:06;;;;;;;;;;;16.50;99.90;;;;;;5033060;28;20052;-62
2023/09/09 01:37:34;;;;;;;19.08;13.35;;;16.50;99.90;;;;;;5018725;28;19921;-62
2023/09/09 01:40:05;;;;;;;19.05;13.63;;;16.50;99.90;;;;;;5032740;28;20045;-62
2023/09/09 01:42:32;;;;;;;16.65;13.00;;;16.50;99.90;;;;;;5022455;28;20652;-62
2023/09/09 01:44:59;;;;;;;22.48;14.23;;;16.40;99.90;;;;;;5013856;28;20045;-62
2023/09/09 01:47:26;;;;;;;19.27;14.32;;;16.40;99.90;;;;;;5004910;28;20167;-62
2023/09/09 01:49:53;;;;;;;18.20;14.15;;;16.40;99.90;;;;;;5020347;28;20501;-63
2023/09/09 01:52:20;;;;;;;19.15;14.95;;;16.30;99.90;;;;;;5010771;28;20052;-62
2023/09/09 01:54:46;;;;;;;19.23;15.48;;;16.30;99.90;;;;;;5018537;28;20037;-62
2023/09/09 01:57:16;;;;;;;18.30;14.00;;;16.40;99.90;;;;;;5016411;28;20136;-62
2023/09/09 01:59:43;;;;;;;17.65;13.63;;;16.30;99.90;;;;;;5004295;28;20038;-62
2023/09/09 02:02:10;;;;;;;17.35;13.10;;;16.20;99.90;;;;;;5012373;28;20075;-62
2023/09/09 02:04:37;;;;;;;15.65;12.88;;;16.20;99.90;;;;;;5019459;28;20426;-62
2023/09/09 02:07:03;;;;;;;17.42;13.95;;;16.20;99.90;;;;;;5023753;28;20041;-62
2023/09/09 02:09:30;;;;;;;17.13;13.73;;;16.10;99.90;;;;;;5020350;28;20080;-62
2023/09/09 02:11:57;;;;;;;15.48;12.98;;;16.00;99.90;;;;;;5031174;28;20041;-62
2023/09/09 02:14:24;;;;;;;16.13;13.20;;;16.00;99.90;;;;;;5019266;28;20037;-62
2023/09/09 02:16:51;;;;;;;16.27;12.98;;;15.90;99.90;;;;;;5010071;28;20050;-62
2023/09/09 02:19:17;;;;;;;18.83;13.05;;;15.90;99.90;;;;;;5032494;28;20540;-62
2023/09/09 02:21:44;;;;;;;17.13;13.27;;;16.00;99.90;;;;;;5007195;28;20383;-62
2023/09/09 02:24:11;;;;;;;17.40;12.70;;;16.00;99.90;;;;;;5029818;28;20516;-62
2023/09/09 02:26:38;;;;;;;17.27;12.60;;;16.00;99.90;;;;;;5011294;28;20055;-62
2023/09/09 02:29:06;;;;;;;20.15;13.45;;;16.00;99.90;;;;;;5018608;28;20541;-62
2023/09/09 02:31:32;;;;;;;17.02;12.85;;;16.00;99.90;;;;;;5013928;28;20053;-62
2023/09/09 02:33:59;;;;;;;17.27;12.88;;;16.00;99.90;;;;;;5031574;28;20038;-62
2023/09/09 02:36:26;;;;;;;18.25;13.70;;;16.00;99.90;;;;;;5023831;28;20046;-62
2023/09/09 02:38:53;;;;;;;15.23;12.50;;;15.90;99.90;;;;;;5019645;28;20056;-62
2023/09/09 02:41:20;;;;;;;17.38;12.82;;;15.90;99.90;;;;;;5022388;28;20046;-62
2023/09/09 02:43:46;;;;;;;18.02;13.18;;;15.90;99.90;;;;;;5028724;28;20052;-62
2023/09/09 02:46:13;;;;;;;17.30;13.15;;;15.90;99.90;;;;;;5003424;28;20042;-62
2023/09/09 02:48:40;;;;;;;20.02;13.20;;;15.80;99.90;;;;;;5022637;28;20130;-62
2023/09/09 02:51:07;;;;;;;18.13;13.10;;;15.80;99.90;;;;;;5014786;28;20046;-62
2023/09/09 02:53:34;;;;;;;19.15;13.75;;;15.70;99.90;;;;;;5022958;28;20091;-62
2023/09/09 02:56:01;;;;;;;;;;;15.80;99.90;;;;;;5003199;28;20042;-62
2023/09/09 02:58:28;;;;;;;17.83;13.25;;;15.80;99.90;;;;;;5013172;28;19975;-62
2023/09/09 03:01:05;;;;;;;19.00;13.68;;;15.80;99.90;;;;;;5022534;28;20053;-62
2023/09/09 03:03:35;;;;;;;16.40;12.43;;;15.80;99.90;;;;;;5009414;28;20041;-62
2023/09/09 03:06:03;;;;;;;19.27;13.52;;;15.70;99.90;;;;;;5014244;28;20135;-62
2023/09/09 03:08:30;;;;;;;;;;;15.70;99.90;;;;;;5019693;28;20046;-62
2023/09/09 03:10:56;;;;;;;20.02;12.75;;;15.60;99.90;;;;;;5021417;28;19964;-62
2023/09/09 03:13:23;;;;;;;15.80;12.80;;;15.70;99.90;;;;;;5005089;28;20077;-62
2023/09/09 03:15:50;;;;;;;19.80;12.80;;;15.70;99.90;;;;;;5017822;28;20048;-62
2023/09/09 03:18:17;;;;;;;20.27;13.00;;;15.70;99.90;;;;;;5005477;28;20524;-62
2023/09/09 03:20:44;;;;;;;17.30;13.68;;;15.70;99.90;;;;;;5021441;28;20104;-62
2023/09/09 03:23:11;;;;;;;20.60;15.20;;;15.70;99.90;;;;;;5019472;28;20083;-62
2023/09/09 03:25:38;;;;;;;;;;;15.70;99.90;;;;;;5013531;28;20136;-62
2023/09/09 03:28:05;;;;;;;18.33;13.45;;;15.80;99.90;;;;;;5016722;28;19921;-62
2023/09/09 03:30:54;;;;;;;16.25;12.70;;;15.70;99.90;;;;;;5008192;28;20041;-62
2023/09/09 03:33:24;;;;;;;16.85;12.63;;;15.70;99.90;;;;;;5019836;28;20034;-62
2023/09/09 03:35:51;;;;;;;19.80;13.13;;;15.70;99.90;;;;;;5013310;28;20045;-62
2023/09/09 03:38:18;;;;;;;13.68;10.25;;;15.70;99.90;;;;;;5013376;28;20393;-62
2023/09/09 03:40:45;;;;;;;13.38;11.02;;;15.70;99.90;;;;;;5030287;28;20048;-62
2023/09/09 03:43:12;;;;;;;14.52;11.63;;;15.60;99.90;;;;;;5029101;28;20087;-62
2023/09/09 03:45:39;;;;;;;18.13;11.10;;;15.60;99.90;;;;;;5006682;28;20049;-62
2023/09/09 03:48:06;;;;;;;17.17;11.55;;;15.60;99.90;;;;;;5006737;28;20089;-62
2023/09/09 03:50:33;;;;;;;18.70;12.48;;;15.50;99.90;;;;;;5021087;28;20053;-62
2023/09/09 03:53:02;;;;;;;19.55;12.57;;;15.50;99.90;;;;;;5012612;28;20346;-62
2023/09/09 03:55:29;;;;;;;17.63;12.77;;;15.50;99.90;;;;;;5007162;28;20038;-62
2023/09/09 03:57:56;;;;;;;18.58;12.70;;;15.50;99.90;;;;;;4993034;28;20041;-62
2023/09/09 04:00:24;;;;;;;18.17;12.70;;;15.50;99.90;;;;;;5008088;28;20406;-63
2023/09/09 04:02:51;;;;;;;19.52;14.43;;;15.50;99.90;;;;;;5008127;28;20103;-63
2023/09/09 04:05:18;;;;;;;16.17;12.63;;;15.50;99.90;;;;;;5012648;28;20472;-62
2023/09/09 04:07:45;;;;;;;17.23;12.45;;;15.50;99.90;;;;;;5012745;28;20057;-62
2023/09/09 04:10:14;;;;;;;18.23;12.77;;;15.50;99.90;;;;;;5011019;28;20049;-62
2023/09/09 04:12:41;;;;;;;;;;;15.50;99.90;;;;;;5012072;28;20114;-62
2023/09/09 04:15:09;;;;;;;19.80;14.63;;;15.50;99.90;;;;;;5031419;28;20281;-62
2023/09/09 04:17:36;;;;;;;18.67;14.07;;;15.50;99.90;;;;;;5004609;28;20049;-61
2023/09/09 04:20:04;;;;;;;20.90;14.68;;;15.50;99.90;;;;;;5015160;28;20045;-62
2023/09/09 04:22:32;;;;;;;18.55;13.70;;;15.60;99.90;;;;;;5019933;28;20414;-62
2023/09/09 04:24:58;;;;;;;20.58;14.38;;;15.60;99.90;;;;;;5004678;28;20050;-61
2023/09/09 04:27:26;;;;;;;19.27;14.75;;;15.60;99.90;;;;;;5003018;28;20069;-62
2023/09/09 04:29:53;;;;;;;20.38;14.93;;;15.60;99.90;;;;;;5013703;28;20062;-62
2023/09/09 04:32:20;;;;;;;19.00;14.63;;;15.60;99.90;;;;;;5004044;28;20046;-62
2023/09/09 04:34:47;;;;;;;17.45;14.65;;;15.70;99.90;;;;;;5017417;28;20080;-60
2023/09/09 04:37:14;;;;;;;21.08;14.93;;;15.70;99.90;;;;;;5019900;28;20053;-61
2023/09/09 04:39:41;;;;;;;15.85;11.95;;;15.70;99.90;;;;;;5024773;28;20061;-62
2023/09/09 04:42:08;;;;;;;14.95;12.00;;;15.60;99.90;;;;;;5009128;28;20053;-62
2023/09/09 04:44:35;;;;;;;15.93;12.52;;;15.50;99.90;;;;;;5008590;28;20558;-62
2023/09/09 04:47:02;;;;;;;15.93;11.80;;;15.40;99.90;;;;;;5009134;28;20073;-62
2023/09/09 04:49:30;;;;;;;17.58;12.35;;;15.40;99.90;;;;;;5018942;28;20053;-62
2023/09/09 04:51:57;;;;;;;16.38;12.35;;;15.30;99.90;;;;;;5026269;28;20049;-62
2023/09/09 04:54:24;;;;;;;17.55;12.48;;;15.20;99.90;;;;;;5004311;28;20041;-62
2023/09/09 04:56:51;;;;;;;16.20;12.88;;;15.30;99.90;;;;;;5009903;28;20096;-61
2023/09/09 04:59:17;;;;;;;16.45;12.45;;;15.30;99.90;;;;;;5005374;28;20095;-62
2023/09/09 05:01:45;;;;;;;18.10;13.70;;;15.30;99.90;;;;;;4990890;28;20153;-62
2023/09/09 05:04:12;;;;;;;17.15;13.02;;;15.20;99.90;;;;;;5010332;28;20256;-62
2023/09/09 05:06:39;;;;;;;20.95;14.20;;;15.20;99.90;;;;;;5015569;28;20042;-62
2023/09/09 05:09:05;;;;;;;21.63;14.43;;;15.20;99.90;;;;;;5006810;28;20052;-62
2023/09/09 05:11:32;;;;;;;19.33;13.00;;;15.20;99.90;;;;;;5019312;28;20038;-62
2023/09/09 05:13:59;;;;;;;16.95;13.60;;;15.30;99.90;;;;;;5010082;28;20053;-62
2023/09/09 05:16:26;;;;;;;21.48;13.30;;;15.30;99.90;;;;;;5005295;28;20049;-62
2023/09/09 05:18:53;;;;;;;17.05;13.20;;;15.30;99.90;;;;;;5007333;28;20049;-62
2023/09/09 05:21:20;;;;;;;;;;;15.40;99.90;;;;;;5006592;28;20506;-62
2023/09/09 05:23:47;;;;;;;16.42;12.43;;;15.40;99.90;;;;;;4986335;28;19976;-62
2023/09/09 05:26:14;;;;;;;15.98;12.27;;;15.40;99.90;;;;;;5008906;28;20037;-62
2023/09/09 05:28:41;;;;;;;16.17;12.63;;;15.40;99.90;;;;;;5008973;28;20048;-61
2023/09/09 05:31:08;;;;;;;18.00;13.05;;;15.50;99.90;;;;;;5005164;28;20099;-61
2023/09/09 05:33:35;;;;;;;16.33;13.40;;;15.50;99.90;;;;;;5011788;28;20041;-62
2023/09/09 05:36:03;;;;;;;;;;;15.50;99.90;;;;;;5031115;28;20048;-60
2023/09/09 05:38:29;;;;;;;21.33;13.57;;;15.50;99.90;;;;;;5026453;28;19929;-62
2023/09/09 05:40:57;;;;;;;17.88;13.20;;;15.50;99.90;;;;;;5008160;28;20046;-62
2023/09/09 05:43:23;;;;;;;18.02;13.77;;;15.50;99.90;;;;;;5006294;28;20052;-62
2023/09/09 05:45:50;;;;;;;15.77;12.30;;;15.50;99.90;;;;;;5011761;28;20038;-61
2023/09/09 05:48:17;;;;;;;20.30;13.63;;;15.40;99.90;;;;;;5005979;28;20045;-62
2023/09/09 05:50:44;;;;;;;17.02;12.73;;;15.60;99.90;;;;;;5014863;28;20584;-62
2023/09/09 05:53:11;;;;;;;16.90;13.00;;;15.60;99.90;;;;;;5014354;28;20042;-60
2023/09/09 05:55:38;;;;;;;23.70;14.48;;;15.70;99.90;;;;;;5020759;28;20046;-62
2023/09/09 05:58:05;;;;;;;17.65;13.57;;;15.70;99.90;;;;;;5006374;28;20050;-62
2023/09/09 06:00:32;;;;;;;19.08;12.80;;;15.70;99.90;;;;;;5032372;28;20083;-62
2023/09/09 06:02:59;;;;;;;16.27;12.88;;;15.80;99.90;;;;;;5016406;28;20046;-62
2023/09/09 06:05:26;;;;;;;20.85;14.55;;;15.90;99.90;;;;;;5020359;28;20095;-62
2023/09/09 06:07:53;;;;;;;18.13;13.57;;;15.90;99.90;;;;;;5018477;28;20509;-62
2023/09/09 06:10:19;;;;;;;18.48;13.90;;;16.00;99.90;;;;;;5029416;28;20132;-62
2023/09/09 06:12:46;;;;;;;17.75;14.23;;;16.10;99.90;;;;;;5033170;28;20049;-62
2023/09/09 06:15:13;;;;;;;19.13;15.18;;;16.20;99.90;;;;;;5012594;28;20495;-60
2023/09/09 06:17:41;;;;;;;21.98;15.60;;;16.30;99.90;;;;;;5009832;28;20535;-62
2023/09/09 06:20:09;;;;;;;20.58;15.10;;;16.40;99.90;;;;;;5017555;28;20037;-62
2023/09/09 06:22:37;;;;;;;20.00;13.93;;;16.50;99.90;;;;;;5014040;28;20058;-62
2023/09/09 06:25:05;;;;;;;24.33;15.40;;;16.70;99.90;;;;;;5019413;28;20045;-61
2023/09/09 06:27:32;;;;;;;18.60;14.80;;;16.70;99.90;;;;;;5004463;28;20118;-62
2023/09/09 06:29:59;;;;;;;20.45;14.30;;;16.90;99.90;;;;;;5011182;28;20494;-62
2023/09/09 06:32:27;;;;;;;21.40;15.00;;;16.90;99.90;;;;;;5009476;28;20042;-62
2023/09/09 06:34:54;;;;;;;21.20;15.40;;;16.90;99.90;;;;;;5014642;28;20054;-62
2023/09/09 06:37:21;;;;;;;18.10;13.65;;;17.10;99.90;;;;;;5019979;28;20103;-61
2023/09/09 06:39:48;;;;;;;16.40;13.63;;;17.30;99.90;;;;;;5032227;28;20049;-62
2023/09/09 06:42:15;;;;;;;17.70;14.13;;;17.40;99.90;;;;;;5019426;28;20523;-62
2023/09/09 06:44:46;;;;;;;19.08;14.10;;;17.50;99.90;;;;;;5003116;28;20093;-61
2023/09/09 06:47:13;;;;;;;20.20;15.43;;;17.70;99.90;;;;;;5020783;28;20045;-61
2023/09/09 06:49:40;;;;;;;21.83;14.15;;;17.80;99.90;;;;;;5020565;28;20184;-62
2023/09/09 06:52:07;;;;;;;;;;;17.90;99.90;;;;;;5005651;28;20041;-62
2023/09/09 06:54:34;;;;;;;19.30;14.05;;;18.00;99.90;;;;;;5014217;28;19928;-62
2023/09/09 06:57:00;;;;;;;21.75;14.15;;;18.10;99.90;;;;;;5021193;28;20045;-62
2023/09/09 06:59:28;;;;;;;17.90;14.15;;;18.30;99.90;;;;;;5020464;28;20048;-62
2023/09/09 07:01:55;;;;;;;17.35;14.10;;;18.30;99.90;;;;;;5019983;28;20493;-62
2023/09/09 07:04:22;;;;;;;14.82;12.63;;;18.40;99.90;;;;;;5028470;28;20414;-60
2023/09/09 07:06:49;;;;;;;17.13;14.20;;;18.50;99.90;;;;;;5024075;28;20045;-61
2023/09/09 07:09:35;;;;;;;18.42;13.80;;;18.60;99.90;;;;;;5022529;28;20596;-62
2023/09/09 07:12:02;;;;;;;18.83;13.98;;;18.80;99.90;;;;;;5006943;28;20460;-62
2023/09/09 07:14:29;;;;;;;19.65;13.63;;;18.90;99.90;;;;;;5003735;28;20042;-61
2023/09/09 07:17:00;;;;;;;16.85;13.88;;;19.10;99.90;;;;;;4993770;28;20698;-61
2023/09/09 07:19:27;;;;;;;19.50;13.20;;;19.30;99.90;;;;;;5005647;28;20054;-62
2023/09/09 07:21:53;;;;;;;16.52;13.32;;;19.40;99.90;;;;;;5024170;28;20041;-61
2023/09/09 07:24:20;;;;;;;17.00;13.70;;;19.50;99.90;;;;;;5005140;28;20404;-62
2023/09/09 07:26:47;;;;;;;16.58;13.50;;;19.60;99.90;;;;;;5024562;28;20034;-62
2023/09/09 07:29:13;;;;;;;18.38;13.15;;;19.60;99.90;;;;;;5024062;28;20038;-62
2023/09/09 07:31:40;;;;;;;15.75;12.68;;;19.70;99.90;;;;;;5023359;28;20046;-62
2023/09/09 07:34:08;;;;;;;19.83;14.35;;;19.70;99.90;;;;;;5017377;28;20049;-62
2023/09/09 07:36:35;;;;;;;16.52;12.95;;;19.80;99.90;;;;;;5022672;28;20132;-61
2023/09/09 07:39:02;;;;;;;15.25;12.85;;;19.90;99.90;;;;;;5023571;28;20045;-62
2023/09/09 07:41:28;;;;;;;15.95;13.20;;;20.00;99.90;;;;;;5015683;28;20073;-62
2023/09/09 07:43:55;;;;;;;14.20;12.68;;;20.10;99.90;;;;;;5031797;28;20045;-62
2023/09/09 07:46:22;;;;;;;18.63;12.65;;;20.10;99.90;;;;;;5022375;28;20044;-62
2023/09/09 07:48:49;;;;;;;18.58;12.93;;;20.20;99.90;;;;;;5019930;28;20124;-62
2023/09/09 07:51:15;;;;;;;13.93;11.85;;;20.30;99.90;;;;;;5023835;28;20042;-62
2023/09/09 07:53:42;;;;;;;13.18;10.93;;;20.40;99.90;;;;;;5028826;28;20053;-63
2023/09/09 07:56:09;;;;;;;16.30;11.13;;;20.60;99.90;;;;;;5019781;28;20108;-62
2023/09/09 07:58:36;;;;;;;17.70;10.45;;;20.60;99.90;;;;;;5021729;28;20060;-62
2023/09/09 08:01:06;;;;;;;13.38;11.40;;;20.60;99.90;;;;;;5022281;28;20037;-61
2023/09/09 08:03:33;;;;;;;16.58;11.43;;;20.60;99.90;;;;;;5029747;28;20065;-62
2023/09/09 08:06:06;;;;;;;18.35;11.80;;;20.70;99.90;;;;;;5018547;28;20046;-62
2023/09/09 08:08:35;;;;;;;14.48;11.30;;;20.80;99.90;;;;;;5003375;28;20037;-62
2023/09/09 08:11:03;;;;;;;14.18;11.40;;;21.00;99.90;;;;;;5011962;28;20182;-62
2023/09/09 08:13:29;;;;;;;14.20;11.90;;;21.10;99.90;;;;;;5023043;28;20062;-62
2023/09/09 08:16:00;;;;;;;14.07;11.93;;;21.30;99.90;;;;;;5023212;28;20588;-62
2023/09/09 08:18:27;;;;;;;16.55;12.30;;;21.40;99.90;;;;;;5019230;28;20131;-62
2023/09/09 08:20:53;;;;;;;14.23;11.55;;;21.70;99.90;;;;;;5031033;28;20051;-61
2023/09/09 08:23:22;;;;;;;16.13;11.10;;;21.70;99.90;;;;;;5022288;28;20045;-62
2023/09/09 08:25:49;;;;;;;16.00;11.68;;;21.80;99.90;;;;;;5019838;28;20042;-63
2023/09/09 08:28:16;;;;;;;12.77;11.38;;;21.90;99.90;;;;;;5023112;28;20033;-63
2023/09/09 08:30:46;;;;;;;14.52;11.55;;;22.10;99.90;;;;;;5027840;28;20046;-63
2023/09/09 08:33:13;;;;;;;13.80;11.90;;;22.20;99.90;;;;;;5006574;28;20048;-63
2023/09/09 08:35:39;;;;;;;14.35;11.82;;;22.30;99.90;;;;;;5029762;28;20045;-63
2023/09/09 08:38:06;;;;;;;13.60;12.18;;;22.40;99.90;;;;;;5018580;28;20048;-62
2023/09/09 08:40:37;;;;;;;16.67;11.95;;;22.50;99.90;;;;;;5001561;28;20052;-63
2023/09/09 08:43:33;;;;;;;12.70;10.95;;;22.60;99.90;;;;;;4998842;28;20053;-63
2023/09/09 08:46:09;;;;;;;14.82;11.25;;;22.60;99.90;;;;;;5022945;28;20033;-63
2023/09/09 08:48:37;;;;;;;19.90;12.63;;;22.80;99.90;;;;;;5003523;28;20128;-63
2023/09/09 08:51:05;;;;;;;15.20;11.65;;;22.90;99.90;;;;;;5016019;28;20072;-63
2023/09/09 08:53:35;;;;;;;12.68;10.48;;;23.00;99.90;;;;;;5020023;28;20250;-64
2023/09/09 08:56:03;;;;;;;12.40;10.40;;;23.00;99.90;;;;;;5013347;28;20498;-63
2023/09/09 08:58:30;;;;;;;11.85;10.50;;;23.00;99.90;;;;;;5021652;28;20046;-61
2023/09/09 09:00:58;;;;;;;15.27;11.23;;;22.90;99.90;;;;;;5018264;28;20042;-61
2023/09/09 09:03:26;;;;;;;12.57;10.68;;;23.00;99.90;;;;;;5027061;28;20038;-64
2023/09/09 09:05:57;;;;;;;13.02;10.45;;;23.00;99.90;;;;;;5021867;28;20049;-63
2023/09/09 09:08:24;;;;;;;12.88;11.00;;;23.00;99.90;;;;;;5004868;28;20130;-61
2023/09/09 09:10:51;;;;;;;;;;;23.10;99.90;;;;;;5017751;28;20040;-63
2023/09/09 09:13:18;;;;;;;16.90;12.38;;;23.10;99.90;;;;;;5019172;28;19921;-64
2023/09/09 09:15:45;;;;;;;17.80;10.68;;;23.20;99.90;;;;;;5021395;28;20057;-63
2023/09/09 09:18:11;;;;;;;12.18;10.18;;;23.40;99.90;;;;;;5019676;28;20069;-60
2023/09/09 09:20:40;;;;;;;13.27;11.27;;;23.60;99.90;;;;;;5018548;28;20421;-61
2023/09/09 09:23:11;;;;;;;13.43;10.77;;;23.70;99.90;;;;;;5015321;28;20052;-63
2023/09/09 09:25:45;;;;;;;14.25;11.32;;;23.70;99.90;;;;;;5030632;28;20217;-64
2023/09/09 09:28:14;;;;;;;11.90;10.18;;;23.80;99.90;;;;;;5027101;28;20135;-64
2023/09/09 09:30:41;;;;;;;13.55;10.85;;;23.90;99.90;;;;;;5005898;28;20046;-61
2023/09/09 09:33:08;;;;;;;13.75;11.32;;;24.00;99.90;;;;;;5033061;28;20037;-64
2023/09/09 09:35:38;;;;;;;;;;;24.10;99.90;;;;;;5019728;28;20093;-63
2023/09/09 09:38:06;;;;;;;12.18;10.80;;;24.20;99.90;;;;;;5024877;28;19928;-64
2023/09/09 09:40:33;;;;;;;12.88;10.38;;;24.30;99.90;;;;;;5030500;28;20040;-64
2023/09/09 09:43:00;;;;;;;14.27;10.90;;;24.30;99.90;;;;;;5025172;28;20029;-63
2023/09/09 09:45:28;;;;;;;14.07;11.52;;;24.40;99.90;;;;;;5017946;28;20042;-64
2023/09/09 09:47:57;;;;;;;15.55;10.85;;;24.50;99.90;;;;;;5025605;28;20124;-61
2023/09/09 09:50:34;;;;;;;13.60;10.60;;;24.70;99.90;;;;;;5024650;28;20647;-61
2023/09/09 09:53:05;;;;;;;12.43;10.68;;;24.80;99.90;;;;;;5030172;28;20056;-61
2023/09/09 09:55:34;;;;;;;13.25;11.48;;;25.00;99.90;;;;;;5004481;28;20046;-60
2023/09/09 09:58:04;;;;;;;12.85;10.75;;;25.20;99.90;;;;;;5000415;28;20069;-61
2023/09/09 10:00:32;;;;;;;12.02;10.73;;;25.20;99.90;;;;;;5004598;28;20042;-62
2023/09/09 10:03:00;;;;;;;13.40;11.48;;;25.20;99.90;;;;;;5006918;28;20107;-61
2023/09/09 10:05:29;;;;;;;13.85;12.05;;;25.20;99.90;;;;;;5032776;28;20568;-61
2023/09/09 10:08:27;;;;;;;13.48;11.48;;;25.20;99.90;;;;;;5020845;28;20068;-61
2023/09/09 10:11:03;;;;;;;13.18;10.55;;;25.20;99.90;;;;;;5024758;28;20048;-64
2023/09/09 10:13:46;;;;;;;13.15;11.75;;;25.30;99.90;;;;;;5029778;28;20033;-64
2023/09/09 10:16:16;;;;;;;12.98;10.73;;;25.40;99.90;;;;;;5025423;28;20041;-61
2023/09/09 10:18:46;;;;;;;12.48;11.23;;;25.50;99.90;;;;;;5024847;28;20029;-64
2023/09/09 10:21:14;;;;;;;12.18;10.75;;;25.50;99.90;;;;;;5024842;28;20363;-61
2023/09/09 10:23:51;;;;;;;12.35;10.63;;;25.50;99.90;;;;;;5031270;28;20397;-64
2023/09/09 10:26:19;;;;;;;11.70;10.32;;;25.50;99.90;;;;;;5021501;28;20036;-61
2023/09/09 10:28:47;;;;;;;13.82;10.63;;;25.60;99.90;;;;;;5006137;28;20053;-64
2023/09/09 10:31:14;;;;;;;11.63;10.23;;;25.80;99.90;;;;;;5024073;28;20113;-61
2023/09/09 10:33:42;;;;;;;12.85;10.70;;;25.90;99.90;;;;;;5032561;28;20045;-61
2023/09/09 10:36:10;;;;;;;11.93;10.55;;;25.90;99.90;;;;;;5020227;28;20042;-61
2023/09/09 10:38:37;;;;;;;12.55;9.68;;;25.90;99.90;;;;;;5021258;28;20517;-61
2023/09/09 10:41:04;;;;;;;13.88;10.43;;;25.90;99.90;;;;;;5016403;28;20584;-61
2023/09/09 10:43:31;;;;;;;11.90;10.57;;;25.90;99.90;;;;;;5029212;28;20037;-61
2023/09/09 10:45:58;;;;;;;12.93;10.52;;;26.00;99.90;;;;;;5024695;28;20595;-60
2023/09/09 10:48:27;;;;;;;11.05;9.95;;;26.00;99.90;;;;;;5024856;28;20029;-61
2023/09/09 10:50:54;;;;;;;11.18;9.85;;;26.20;99.90;;;;;;5023794;28;20403;-61
2023/09/09 10:53:29;;;;;;;12.35;10.38;;;26.30;99.90;;;;;;5028645;28;20040;-61
2023/09/09 10:56:00;;;;;;;11.70;10.10;;;26.30;99.90;;;;;;5024470;28;20042;-61
2023/09/09 10:58:38;;;;;;;11.70;9.50;;;26.40;99.90;;;;;;5024478;28;20421;-61
2023/09/09 11:01:07;;;;;;;;;;;26.60;99.90;;;;;;5016550;28;20433;-61
2023/09/09 11:03:40;;;;;;;11.27;10.07;;;26.60;99.90;;;;;;5022140;28;20051;-61
2023/09/09 11:06:12;;;;;;;11.77;9.70;;;26.60;99.90;;;;;;5015210;28;20087;-61
2023/09/09 11:08:41;;;;;;;11.23;10.00;;;26.70;99.90;;;;;;5022557;28;20046;-61
2023/09/09 11:11:13;;;;;;;10.13;9.10;;;26.60;99.90;;;;;;5024571;28;20076;-61
2023/09/09 11:13:44;;;;;;;12.65;10.05;;;26.50;99.90;;;;;;5023757;28;20057;-61
2023/09/09 11:16:31;;;;;;;10.85;9.75;;;26.50;99.90;;;;;;5028515;28;20033;-61
2023/09/09 11:19:03;;;;;;;13.25;10.35;;;26.40;99.90;;;;;;5022467;28;20044;-61
2023/09/09 11:21:33;;;;;;;14.30;9.80;;;26.40;99.90;;;;;;5003305;28;20073;-62
2023/09/09 11:24:02;;;;;;;11.82;10.43;;;26.40;99.90;;;;;;5026150;28;20081;-61
2023/09/09 11:26:29;;;;;;;14.30;10.27;;;26.30;99.90;;;;;;5023840;28;20033;-61
2023/09/09 11:28:57;;;;;;;12.73;10.70;;;26.40;99.90;;;;;;5021369;28;20045;-61
2023/09/09 11:31:24;;;;;;;12.93;9.52;;;26.40;99.90;;;;;;5016712;28;20038;-61
2023/09/09 11:33:55;;;;;;;13.45;10.52;;;26.30;99.90;;;;;;5025967;28;20048;-61
2023/09/09 11:36:23;;;;;;;11.70;10.50;;;26.30;99.90;;;;;;5032362;28;20038;-61
2023/09/09 11:38:50;;;;;;;14.20;9.85;;;26.40;99.90;;;;;;5020741;28;20045;-62
2023/09/09 11:41:20;;;;;;;;;;;26.60;99.90;;;;;;5020904;28;20461;-61
2023/09/09 11:44:03;;;;;;;12.27;10.90;;;26.70;99.90;;;;;;5014348;28;19925;-61
2023/09/09 11:46:44;;;;;;;14.82;11.05;;;26.90;99.90;;;;;;5024053;28;20038;-61
2023/09/09 11:49:12;;;;;;;14.40;11.52;;;27.00;99.90;;;;;;5023161;28;20037;-62
2023/09/09 11:51:39;;;;;;;16.60;10.73;;;27.00;99.90;;;;;;5016145;28;20042;-62
2023/09/09 11:54:07;;;;;;;13.52;11.75;;;26.90;99.90;;;;;;5022431;28;20060;-64
2023/09/09 11:56:34;;;;;;;11.95;10.75;;;27.00;99.90;;;;;;5031706;28;20501;-61
2023/09/09 11:59:08;;;;;;;15.88;11.48;;;26.90;99.90;;;;;;5020663;28;20505;-61
2023/09/09 12:01:45;;;;;;;13.88;11.93;;;26.80;99.90;;;;;;5020294;28;20046;-60
2023/09/09 12:04:14;;;;;;;12.20;11.00;;;26.80;99.90;;;;;;5023180;28;20045;-61
2023/09/09 12:06:46;;;;;;;13.10;10.68;;;26.70;99.90;;;;;;5024345;28;20073;-61
2023/09/09 12:09:13;;;;;;;13.00;10.80;;;26.70;99.90;;;;;;5014805;28;20100;-61
2023/09/09 12:11:41;;;;;;;14.50;10.63;;;26.70;99.90;;;;;;5019018;28;20117;-61
2023/09/09 12:14:10;;;;;;;14.60;11.20;;;26.70;99.90;;;;;;5030958;28;20056;-61
2023/09/09 12:16:38;;;;;;;11.98;10.77;;;26.70;99.90;;;;;;5022850;28;20045;-61
2023/09/09 12:19:05;;;;;;;11.88;10.65;;;26.80;99.90;;;;;;5020096;28;20478;-61
2023/09/09 12:21:50;;;;;;;13.65;10.35;;;26.90;99.90;;;;;;5013425;28;20045;-61
2023/09/09 12:24:17;;;;;;;11.77;10.45;;;27.00;99.90;;;;;;5015916;28;20042;-61
2023/09/09 12:26:51;;;;;;;;;;;27.00;99.90;;;;;;5023673;28;20042;-64
2023/09/09 12:29:18;;;;;;;14.73;10.20;;;27.10;99.90;;;;;;5010946;28;20020;-61
2023/09/09 12:31:58;;;;;;;11.55;10.30;;;27.10;99.90;;;;;;5019842;28;20070;-61
2023/09/09 12:34:26;;;;;;;11.45;9.60;;;27.20;99.90;;;;;;5027551;28;20045;-61
2023/09/09 12:36:59;;;;;;;11.85;9.68;;;27.30;99.90;;;;;;5022919;28;20129;-61